createdAt,value
2023-05-02T00:02:17.504Z,12.70
2023-05-02T00:04:44.593Z,12.70
2023-05-02T00:07:11.960Z,12.60
2023-05-02T00:09:39.081Z,12.70
2023-05-02T00:12:06.175Z,12.70
2023-05-02T00:14:33.100Z,12.70
2023-05-02T00:16:59.990Z,12.70
2023-05-02T00:19:26.876Z,12.70
2023-05-02T00:21:53.734Z,12.70
2023-05-02T00:24:20.541Z,12.70
2023-05-02T00:26:47.580Z,12.70
2023-05-02T00:29:14.386Z,12.70
2023-05-02T00:31:41.729Z,12.70
2023-05-02T00:34:08.684Z,12.60
2023-05-02T00:36:35.476Z,12.60
2023-05-02T00:39:02.279Z,12.60
2023-05-02T00:41:29.140Z,12.60
2023-05-02T00:43:55.998Z,12.60
2023-05-02T00:46:22.871Z,12.60
2023-05-02T00:48:50.096Z,12.60
2023-05-02T00:51:17.114Z,12.60
2023-05-02T00:53:44.275Z,12.50
2023-05-02T00:56:11.184Z,12.50
2023-05-02T00:58:41.194Z,12.40
2023-05-02T01:01:56.937Z,12.50
2023-05-02T01:04:53.927Z,12.40
2023-05-02T01:07:56.936Z,12.40
2023-05-02T01:11:02.375Z,12.40
2023-05-02T01:13:35.687Z,12.30
2023-05-02T01:16:07.746Z,12.30
2023-05-02T01:18:40.791Z,12.20
2023-05-02T01:21:10.404Z,12.20
2023-05-02T01:24:00.604Z,12.20
2023-05-02T01:26:50.987Z,12.20
2023-05-02T01:29:18.966Z,12.20
2023-05-02T01:31:50.939Z,12.20
2023-05-02T01:34:21.365Z,12.10
2023-05-02T01:36:51.039Z,12.10
2023-05-02T01:39:24.339Z,12.10
2023-05-02T01:41:54.684Z,12.10
2023-05-02T01:44:24.182Z,12.10
2023-05-02T01:46:55.078Z,12.10
2023-05-02T01:49:25.975Z,12.00
2023-05-02T01:51:53.503Z,12.10
2023-05-02T01:54:24.631Z,12.00
2023-05-02T01:56:52.475Z,12.00
2023-05-02T01:59:23.712Z,12.00
2023-05-02T02:01:53.140Z,12.00
2023-05-02T02:04:22.062Z,12.00
2023-05-02T02:07:03.255Z,11.90
2023-05-02T02:09:31.384Z,12.00
2023-05-02T02:12:12.364Z,11.90
2023-05-02T02:14:46.062Z,11.90
2023-05-02T02:17:24.413Z,11.90
2023-05-02T02:19:56.131Z,11.90
2023-05-02T02:22:27.562Z,11.90
2023-05-02T02:24:57.087Z,11.90
2023-05-02T02:27:24.216Z,11.90
2023-05-02T02:29:51.230Z,11.90
2023-05-02T02:32:18.058Z,11.90
2023-05-02T02:34:45.008Z,11.90
2023-05-02T02:37:33.122Z,11.90
2023-05-02T02:40:20.982Z,11.90
2023-05-02T02:43:01.543Z,12.00
2023-05-02T02:45:56.220Z,11.90
2023-05-02T02:49:03.264Z,11.90
2023-05-02T02:51:37.992Z,11.90
2023-05-02T02:54:28.987Z,11.90
2023-05-02T02:57:04.530Z,11.90
2023-05-02T02:59:41.298Z,12.00
2023-05-02T03:02:12.503Z,11.90
2023-05-02T03:04:43.257Z,11.90
2023-05-02T03:07:10.670Z,11.90
2023-05-02T03:09:42.773Z,11.90
2023-05-02T03:12:09.895Z,11.90
2023-05-02T03:14:37.804Z,11.90
2023-05-02T03:17:05.708Z,11.90
2023-05-02T03:19:32.641Z,11.80
2023-05-02T03:21:59.489Z,11.80
2023-05-02T03:24:29.013Z,11.80
2023-05-02T03:26:59.612Z,11.90
2023-05-02T03:29:28.643Z,11.80
2023-05-02T03:31:55.640Z,11.80
2023-05-02T03:34:22.533Z,11.80
2023-05-02T03:36:52.858Z,11.90
2023-05-02T03:39:19.798Z,11.90
2023-05-02T03:41:46.677Z,11.90
2023-05-02T03:44:13.783Z,11.90
2023-05-02T03:46:40.760Z,11.90
2023-05-02T03:49:08.257Z,11.90
2023-05-02T03:51:35.677Z,11.90
2023-05-02T03:54:02.971Z,11.90
2023-05-02T03:56:29.892Z,11.90
2023-05-02T03:58:56.913Z,11.90
2023-05-02T04:01:23.930Z,11.80
2023-05-02T04:03:52.291Z,11.90
2023-05-02T04:06:19.212Z,11.80
2023-05-02T04:08:46.118Z,11.80
2023-05-02T04:11:12.978Z,11.80
2023-05-02T04:13:39.803Z,11.80
2023-05-02T04:16:07.115Z,11.80
2023-05-02T04:18:34.063Z,11.80
2023-05-02T04:21:00.999Z,11.80
2023-05-02T04:23:27.944Z,11.70
2023-05-02T04:25:56.436Z,11.80
2023-05-02T04:28:23.994Z,11.70
2023-05-02T04:30:51.573Z,11.70
2023-05-02T04:33:18.799Z,11.70
2023-05-02T04:35:46.209Z,11.80
2023-05-02T04:38:13.030Z,11.60
2023-05-02T04:40:40.398Z,11.70
2023-05-02T04:43:07.533Z,11.80
2023-05-02T04:45:37.491Z,11.80
2023-05-02T04:48:05.243Z,11.70
2023-05-02T04:50:32.552Z,11.80
2023-05-02T04:52:59.584Z,11.80
2023-05-02T04:55:26.519Z,11.80
2023-05-02T04:58:01.107Z,11.80
2023-05-02T05:00:34.222Z,11.90
2023-05-02T05:03:01.944Z,11.90
2023-05-02T05:05:29.087Z,11.80
2023-05-02T05:07:55.900Z,12.00
2023-05-02T05:10:22.810Z,12.00
2023-05-02T05:12:49.818Z,12.00
2023-05-02T05:15:17.000Z,12.10
2023-05-02T05:17:43.813Z,12.10
2023-05-02T05:20:10.869Z,12.20
2023-05-02T05:22:42.345Z,12.20
2023-05-02T05:25:10.267Z,12.30
2023-05-02T05:27:38.048Z,12.30
2023-05-02T05:30:06.532Z,12.40
2023-05-02T05:32:33.895Z,12.40
2023-05-02T05:35:01.158Z,12.50
2023-05-02T05:37:28.150Z,12.50
2023-05-02T05:39:55.020Z,12.50
2023-05-02T05:42:21.887Z,12.60
2023-05-02T05:44:48.759Z,12.60
2023-05-02T05:47:22.218Z,12.60
2023-05-02T05:49:56.540Z,12.60
2023-05-02T05:52:23.611Z,12.70
2023-05-02T05:54:55.777Z,12.70
2023-05-02T05:57:23.872Z,12.80
2023-05-02T05:59:51.081Z,12.80
2023-05-02T06:02:19.713Z,12.80
2023-05-02T06:04:47.069Z,12.80
2023-05-02T06:07:14.018Z,12.80
2023-05-02T06:09:41.340Z,12.90
2023-05-02T06:12:08.439Z,12.90
2023-05-02T06:14:35.398Z,12.90
2023-05-02T06:17:02.307Z,12.90
2023-05-02T06:19:29.258Z,13.00
2023-05-02T06:21:56.133Z,13.00
2023-05-02T06:24:22.980Z,13.10
2023-05-02T06:26:51.674Z,13.20
2023-05-02T06:29:18.556Z,13.20
2023-05-02T06:31:45.494Z,13.30
2023-05-02T06:34:12.357Z,13.30
2023-05-02T06:36:39.140Z,13.40
2023-05-02T06:39:06.511Z,13.50
2023-05-02T06:41:33.442Z,13.60
2023-05-02T06:44:00.779Z,13.60
2023-05-02T06:46:33.663Z,13.70
2023-05-02T06:49:00.510Z,13.80
2023-05-02T06:51:28.548Z,13.90
2023-05-02T06:53:55.408Z,13.90
2023-05-02T06:56:22.513Z,14.00
2023-05-02T06:58:49.909Z,14.10
2023-05-02T07:01:17.032Z,14.20
2023-05-02T07:03:43.928Z,14.30
2023-05-02T07:06:10.916Z,14.40
2023-05-02T07:08:37.838Z,14.50
2023-05-02T07:11:04.750Z,14.50
2023-05-02T07:13:31.585Z,14.60
2023-05-02T07:15:58.525Z,14.70
2023-05-02T07:18:25.357Z,14.80
2023-05-02T07:20:52.306Z,14.80
2023-05-02T07:23:19.160Z,14.80
2023-05-02T07:25:47.852Z,14.80
2023-05-02T07:28:15.202Z,15.00
2023-05-02T07:30:42.477Z,15.00
2023-05-02T07:33:09.471Z,15.10
2023-05-02T07:35:36.447Z,15.10
2023-05-02T07:38:03.262Z,15.20
2023-05-02T07:40:30.104Z,15.20
2023-05-02T07:42:58.419Z,15.30
2023-05-02T07:45:25.394Z,15.30
2023-05-02T07:47:52.421Z,15.40
2023-05-02T07:50:19.528Z,15.50
2023-05-02T07:52:46.315Z,15.60
2023-05-02T07:55:13.300Z,15.60
2023-05-02T07:57:40.159Z,15.70
2023-05-02T08:00:10.070Z,15.70
2023-05-02T08:02:37.271Z,15.70
2023-05-02T08:05:05.253Z,15.80
2023-05-02T08:07:33.616Z,15.70
2023-05-02T08:10:00.820Z,15.80
2023-05-02T08:12:28.194Z,15.90
2023-05-02T08:14:55.100Z,15.90
2023-05-02T08:17:22.406Z,16.00
2023-05-02T08:19:49.295Z,16.00
2023-05-02T08:22:16.134Z,16.10
2023-05-02T08:24:42.995Z,16.20
2023-05-02T08:27:09.832Z,16.30
2023-05-02T08:29:36.661Z,16.40
2023-05-02T08:32:03.772Z,16.50
2023-05-02T08:34:30.918Z,16.60
2023-05-02T08:36:58.529Z,16.70
2023-05-02T08:39:25.546Z,16.80
2023-05-02T08:41:52.465Z,16.90
2023-05-02T08:44:19.356Z,17.00
2023-05-02T08:46:49.924Z,17.10
2023-05-02T08:49:18.343Z,17.10
2023-05-02T08:51:49.361Z,17.20
2023-05-02T08:54:19.932Z,17.30
2023-05-02T08:56:47.820Z,17.50
2023-05-02T08:59:14.715Z,17.70
2023-05-02T09:01:46.126Z,17.80
2023-05-02T09:04:13.259Z,18.00
2023-05-02T09:06:40.393Z,18.20
2023-05-02T09:09:08.715Z,18.30
2023-05-02T09:11:35.947Z,18.40
2023-05-02T09:14:15.831Z,18.60
2023-05-02T09:16:43.435Z,18.60
2023-05-02T09:19:11.375Z,18.70
2023-05-02T09:21:41.184Z,18.80
2023-05-02T09:24:22.197Z,18.80
2023-05-02T09:30:20.684Z,18.90
2023-05-02T09:32:51.282Z,18.90
2023-05-02T09:35:23.824Z,18.90
2023-05-02T09:38:00.932Z,18.90
2023-05-02T09:40:30.097Z,18.80
2023-05-02T09:42:57.369Z,18.80
2023-05-02T09:45:26.626Z,18.80
2023-05-02T09:47:54.171Z,18.70
2023-05-02T09:50:38.890Z,18.70
2023-05-02T09:53:09.665Z,18.60
2023-05-02T09:55:36.848Z,18.50
2023-05-02T09:58:04.274Z,18.40
2023-05-02T10:00:42.945Z,18.40
2023-05-02T10:03:11.639Z,18.40
2023-05-02T10:05:40.374Z,18.40
2023-05-02T10:08:10.089Z,18.40
2023-05-02T10:10:40.732Z,18.50
2023-05-02T10:13:09.923Z,18.50
2023-05-02T10:15:44.361Z,18.50
2023-05-02T10:18:26.680Z,18.60
2023-05-02T10:20:59.422Z,18.60
2023-05-02T10:23:30.396Z,18.60
2023-05-02T10:26:00.425Z,18.60
2023-05-02T10:28:28.191Z,18.60
2023-05-02T10:30:55.122Z,18.60
2023-05-02T10:33:23.755Z,18.50
2023-05-02T10:35:50.839Z,18.40
2023-05-02T10:38:24.756Z,18.40
2023-05-02T10:41:03.125Z,18.30
2023-05-02T10:43:35.301Z,18.30
2023-05-02T10:46:05.381Z,18.20
2023-05-02T10:48:32.384Z,18.10
2023-05-02T10:51:03.779Z,18.10
2023-05-02T10:53:39.626Z,18.00
2023-05-02T10:56:28.394Z,18.00
2023-05-02T10:59:42.759Z,18.00
2023-05-02T11:02:23.553Z,18.00
2023-05-02T11:05:05.337Z,18.10
2023-05-02T11:07:34.824Z,18.10
2023-05-02T11:10:22.712Z,18.10
2023-05-02T11:12:53.904Z,18.20
2023-05-02T11:15:29.337Z,18.20
2023-05-02T11:18:00.880Z,18.30
2023-05-02T11:20:28.572Z,18.30
2023-05-02T11:22:58.430Z,18.20
2023-05-02T11:25:34.454Z,18.10
2023-05-02T11:28:01.793Z,17.90
2023-05-02T11:30:40.851Z,17.60
2023-05-02T11:33:07.681Z,17.30
2023-05-02T11:35:36.304Z,17.20
2023-05-02T11:38:12.530Z,16.90
2023-05-02T11:40:39.593Z,16.60
2023-05-02T11:43:16.049Z,16.30
2023-05-02T11:45:54.173Z,15.90
2023-05-02T11:48:24.109Z,15.60
2023-05-02T11:51:06.347Z,15.30
2023-05-02T11:53:33.892Z,15.00
2023-05-02T11:56:04.506Z,14.70
2023-05-02T11:58:33.470Z,14.30
2023-05-02T12:01:16.376Z,13.90
2023-05-02T12:03:43.974Z,13.60
2023-05-02T12:06:14.708Z,13.30
2023-05-02T12:08:44.374Z,13.20
2023-05-02T12:11:15.725Z,13.10
2023-05-02T12:13:48.674Z,13.20
2023-05-02T12:16:17.700Z,13.10
2023-05-02T12:18:45.664Z,13.10
2023-05-02T12:21:12.939Z,13.20
2023-05-02T12:23:42.205Z,13.30
2023-05-02T12:26:25.354Z,13.40
2023-05-02T12:28:54.932Z,13.40
2023-05-02T12:31:23.647Z,13.50
2023-05-02T12:33:52.430Z,13.60
2023-05-02T12:36:19.986Z,13.70
2023-05-02T12:38:57.263Z,13.80
2023-05-02T12:41:39.470Z,13.90
2023-05-02T12:44:08.072Z,14.00
2023-05-02T12:46:36.469Z,14.10
2023-05-02T12:49:09.503Z,14.20
2023-05-02T12:51:37.179Z,14.40
2023-05-02T12:54:05.261Z,14.60
2023-05-02T12:56:40.310Z,14.70
2023-05-02T12:59:07.952Z,14.90
2023-05-02T13:01:35.356Z,15.20
2023-05-02T13:04:02.917Z,15.40
2023-05-02T13:06:30.135Z,15.70
2023-05-02T13:08:57.088Z,15.80
2023-05-02T13:11:24.558Z,16.00
2023-05-02T13:13:51.407Z,16.10
2023-05-02T13:16:18.490Z,16.30
2023-05-02T13:18:47.192Z,16.40
2023-05-02T13:21:14.865Z,16.40
2023-05-02T13:23:41.770Z,16.40
2023-05-02T13:26:08.984Z,16.40
2023-05-02T13:28:37.381Z,16.30
2023-05-02T13:31:04.679Z,16.30
2023-05-02T13:33:31.599Z,16.40
2023-05-02T13:35:58.426Z,16.40
2023-05-02T13:38:25.690Z,16.50
2023-05-02T13:40:54.096Z,16.50
2023-05-02T13:43:21.060Z,16.70
2023-05-02T13:45:48.937Z,16.80
2023-05-02T13:48:16.227Z,16.80
2023-05-02T13:50:43.301Z,16.90
2023-05-02T13:53:10.200Z,16.90
2023-05-02T13:55:37.221Z,17.00
2023-05-02T13:58:04.685Z,16.90
2023-05-02T14:00:31.613Z,16.90
2023-05-02T14:02:58.602Z,16.90
2023-05-02T14:05:25.721Z,17.00
2023-05-02T14:07:52.632Z,16.90
2023-05-02T14:10:19.424Z,16.90
2023-05-02T14:12:46.501Z,16.90
2023-05-02T14:15:13.347Z,16.80
2023-05-02T14:17:40.178Z,16.70
2023-05-02T14:20:10.475Z,16.70
2023-05-02T14:22:37.417Z,16.60
2023-05-02T14:25:05.490Z,16.50
2023-05-02T14:27:32.278Z,16.40
2023-05-02T14:29:59.347Z,16.20
2023-05-02T14:32:26.354Z,16.00
2023-05-02T14:34:53.387Z,15.80
2023-05-02T14:37:20.227Z,15.60
2023-05-02T14:39:51.108Z,15.30
2023-05-02T14:42:19.018Z,15.10
2023-05-02T14:44:46.242Z,14.80
2023-05-02T14:47:13.207Z,14.70
2023-05-02T14:49:40.278Z,14.50
2023-05-02T14:52:07.154Z,14.40
2023-05-02T14:54:34.030Z,14.20
2023-05-02T14:57:02.199Z,14.10
2023-05-02T14:59:30.154Z,14.00
2023-05-02T15:01:57.556Z,13.90
2023-05-02T15:04:27.167Z,13.80
2023-05-02T15:06:55.400Z,13.70
2023-05-02T15:09:23.289Z,13.70
2023-05-02T15:11:50.093Z,13.60
2023-05-02T15:14:16.928Z,13.60
2023-05-02T15:16:44.203Z,13.60
2023-05-02T15:19:11.223Z,13.60
2023-05-02T15:21:38.109Z,13.70
2023-05-02T15:24:05.353Z,13.80
2023-05-02T15:26:32.822Z,14.00
2023-05-02T15:28:59.752Z,14.20
2023-05-02T15:31:26.823Z,14.60
2023-05-02T15:33:53.734Z,14.90
2023-05-02T15:36:21.732Z,15.40
2023-05-02T15:38:48.599Z,16.00
2023-05-02T15:41:15.399Z,16.60
2023-05-02T15:43:42.226Z,17.30
2023-05-02T15:46:11.774Z,17.90
2023-05-02T15:48:41.125Z,18.40
2023-05-02T15:51:11.401Z,18.80
2023-05-02T15:53:42.391Z,19.00
2023-05-02T15:56:12.704Z,19.20
2023-05-02T15:58:40.595Z,19.40
2023-05-02T16:01:07.854Z,19.60
2023-05-02T16:03:34.889Z,19.70
2023-05-02T16:06:01.987Z,19.70
2023-05-02T16:08:29.126Z,19.70
2023-05-02T16:10:56.358Z,19.70
2023-05-02T16:13:23.456Z,19.90
2023-05-02T16:15:52.534Z,20.10
2023-05-02T16:18:20.248Z,20.20
2023-05-02T16:20:47.784Z,20.40
2023-05-02T16:23:14.648Z,20.50
2023-05-02T16:25:41.586Z,20.60
2023-05-02T16:28:08.399Z,20.60
2023-05-02T16:30:38.113Z,20.40
2023-05-02T16:33:05.079Z,20.10
2023-05-02T16:35:32.098Z,19.80
2023-05-02T16:37:59.548Z,19.40
2023-05-02T16:40:28.338Z,19.00
2023-05-02T16:42:55.489Z,18.70
2023-05-02T16:45:22.555Z,18.40
2023-05-02T16:47:49.469Z,18.10
2023-05-02T16:50:16.641Z,17.70
2023-05-02T16:52:44.417Z,17.50
2023-05-02T16:55:11.380Z,17.30
2023-05-02T16:57:39.103Z,17.10
2023-05-02T17:00:08.310Z,16.90
2023-05-02T17:02:35.389Z,16.70
2023-05-02T17:05:02.359Z,16.50
2023-05-02T17:07:29.164Z,16.40
2023-05-02T17:09:56.492Z,16.20
2023-05-02T17:12:23.452Z,16.10
2023-05-02T17:14:51.637Z,15.90
2023-05-02T17:17:22.715Z,15.80
2023-05-02T17:19:50.874Z,15.70
2023-05-02T17:22:38.715Z,15.60
2023-05-02T17:25:16.194Z,15.40
2023-05-02T17:27:43.228Z,15.30
2023-05-02T17:30:10.862Z,15.20
2023-05-02T17:32:37.890Z,15.10
2023-05-02T17:35:05.647Z,15.00
2023-05-02T17:37:32.985Z,14.90
2023-05-02T17:40:02.264Z,14.90
2023-05-02T17:42:29.403Z,14.80
2023-05-02T17:44:57.405Z,14.80
2023-05-02T17:47:25.698Z,14.70
2023-05-02T17:49:53.920Z,14.60
2023-05-02T17:52:21.391Z,14.60
2023-05-02T17:54:48.322Z,14.60
2023-05-02T17:57:16.821Z,14.50
2023-05-02T17:59:44.306Z,14.40
2023-05-02T18:02:11.652Z,14.40
2023-05-02T18:04:38.689Z,14.40
2023-05-02T18:07:06.312Z,14.30
2023-05-02T18:09:33.232Z,14.20
2023-05-02T18:12:03.700Z,14.20
2023-05-02T18:14:30.694Z,14.10
2023-05-02T18:16:57.672Z,14.10
2023-05-02T18:19:24.730Z,14.00
2023-05-02T18:21:52.510Z,14.00
2023-05-02T18:24:19.407Z,13.90
2023-05-02T18:26:48.593Z,13.90
2023-05-02T18:29:15.796Z,13.90
2023-05-02T18:31:42.946Z,13.80
2023-05-02T18:34:09.887Z,13.80
2023-05-02T18:36:36.791Z,13.70
2023-05-02T18:39:03.733Z,13.70
2023-05-02T18:41:30.585Z,13.70
2023-05-02T18:43:58.730Z,13.70
2023-05-02T18:46:27.587Z,13.60
2023-05-02T18:48:54.585Z,13.60
2023-05-02T18:51:21.640Z,13.60
2023-05-02T18:53:49.127Z,13.50
2023-05-02T18:56:25.538Z,13.50
2023-05-02T18:58:56.497Z,13.50
2023-05-02T19:01:24.288Z,13.50
2023-05-02T19:03:53.804Z,13.50
2023-05-02T19:06:20.792Z,13.40
2023-05-02T19:08:48.962Z,13.40
2023-05-02T19:11:16.111Z,13.40
2023-05-02T19:13:43.179Z,13.30
2023-05-02T19:16:12.804Z,13.30
2023-05-02T19:18:40.829Z,13.20
2023-05-02T19:21:12.785Z,13.20
2023-05-02T19:23:44.710Z,13.20
2023-05-02T19:26:16.322Z,13.10
2023-05-02T19:28:44.550Z,13.10
2023-05-02T19:31:14.054Z,13.00
2023-05-02T19:33:41.540Z,13.00
2023-05-02T19:36:13.714Z,12.90
2023-05-02T19:38:41.710Z,12.90
2023-05-02T19:41:08.947Z,12.90
2023-05-02T19:43:36.202Z,12.80
2023-05-02T19:46:03.445Z,12.80
2023-05-02T19:48:48.744Z,12.80
2023-05-02T19:51:15.727Z,12.70
2023-05-02T19:53:42.758Z,12.70
2023-05-02T19:56:25.388Z,12.70
2023-05-02T19:58:58.728Z,12.60
2023-05-02T20:01:31.410Z,12.60
2023-05-02T20:03:58.587Z,12.60
2023-05-02T20:06:32.315Z,12.50
2023-05-02T20:08:59.754Z,12.40
2023-05-02T20:11:26.730Z,12.40
2023-05-02T20:13:54.451Z,12.40
2023-05-02T20:16:21.390Z,12.30
2023-05-02T20:18:48.375Z,12.30
2023-05-02T20:21:15.819Z,12.30
2023-05-02T20:23:43.662Z,12.20
2023-05-02T20:26:10.705Z,12.20
2023-05-02T20:28:37.838Z,12.20
2023-05-02T20:31:05.158Z,12.10
2023-05-02T20:33:43.544Z,12.10
2023-05-02T20:36:13.574Z,12.00
2023-05-02T20:38:42.491Z,12.00
2023-05-02T20:41:13.037Z,12.00
2023-05-02T20:43:45.008Z,12.00
2023-05-02T20:46:16.068Z,11.90
2023-05-02T20:48:43.122Z,11.90
2023-05-02T20:51:10.048Z,11.90
2023-05-02T20:53:37.961Z,11.80
2023-05-02T20:56:05.538Z,11.80
2023-05-02T20:58:32.486Z,11.80
2023-05-02T21:00:59.888Z,11.70
2023-05-02T21:03:27.813Z,11.70
2023-05-02T21:05:56.891Z,11.60
2023-05-02T21:08:24.135Z,11.60
2023-05-02T21:10:51.537Z,11.60
2023-05-02T21:13:18.460Z,11.50
2023-05-02T21:15:45.475Z,11.50
2023-05-02T21:18:12.430Z,11.50
2023-05-02T21:20:41.429Z,11.40
2023-05-02T21:23:12.090Z,11.40
2023-05-02T21:25:39.095Z,11.40
2023-05-02T21:28:06.210Z,11.30
2023-05-02T21:30:33.293Z,11.30
2023-05-02T21:33:00.244Z,11.30
2023-05-02T21:35:28.624Z,11.20
2023-05-02T21:37:55.522Z,11.20
2023-05-02T21:40:22.370Z,11.20
2023-05-02T21:42:49.231Z,11.10
2023-05-02T21:45:16.119Z,11.00
2023-05-02T21:47:43.486Z,11.00
2023-05-02T21:50:10.733Z,11.00
2023-05-02T21:52:37.571Z,11.00
2023-05-02T21:55:04.831Z,10.90
2023-05-02T21:57:31.699Z,10.90
2023-05-02T21:59:58.510Z,10.90
2023-05-02T22:02:25.376Z,10.80
2023-05-02T22:04:52.264Z,10.80
2023-05-02T22:07:19.147Z,10.80
2023-05-02T22:09:46.149Z,10.70
2023-05-02T22:12:12.994Z,10.70
2023-05-02T22:14:45.230Z,10.70
2023-05-02T22:17:13.544Z,10.60
2023-05-02T22:19:40.611Z,10.60
2023-05-02T22:22:07.571Z,10.60
2023-05-02T22:24:34.390Z,10.50
2023-05-02T22:27:01.582Z,10.50
2023-05-02T22:29:28.621Z,10.50
2023-05-02T22:31:55.727Z,10.50
2023-05-02T22:34:23.087Z,10.50
2023-05-02T22:36:50.125Z,10.40
2023-05-02T22:39:17.272Z,10.40
2023-05-02T22:41:44.286Z,10.40
2023-05-02T22:44:11.551Z,10.40
2023-05-02T22:46:39.185Z,10.40
2023-05-02T22:49:11.751Z,10.40
2023-05-02T22:51:40.324Z,10.30
2023-05-02T22:54:08.043Z,10.40
2023-05-02T22:56:35.319Z,10.30
2023-05-02T22:59:02.263Z,10.40
2023-05-02T23:01:29.262Z,10.30
2023-05-02T23:03:56.338Z,10.30
2023-05-02T23:06:23.427Z,10.30
2023-05-02T23:08:50.486Z,10.30
2023-05-02T23:11:17.333Z,10.30
2023-05-02T23:13:44.318Z,10.20
2023-05-02T23:16:11.300Z,10.20
2023-05-02T23:18:38.159Z,10.20
2023-05-02T23:21:05.191Z,10.20
2023-05-02T23:23:32.100Z,10.10
2023-05-02T23:25:58.965Z,10.10
2023-05-02T23:28:26.320Z,10.10
2023-05-02T23:30:53.809Z,10.10
2023-05-02T23:33:21.140Z,10.00
2023-05-02T23:35:48.467Z,10.00
2023-05-02T23:38:15.769Z,10.00
2023-05-02T23:40:42.838Z,10.00
2023-05-02T23:43:10.856Z,10.00
2023-05-02T23:45:37.788Z,9.90
2023-05-02T23:48:04.828Z,9.90
2023-05-02T23:50:32.746Z,9.90
2023-05-02T23:52:59.799Z,9.90
2023-05-02T23:55:26.986Z,9.80
2023-05-02T23:57:53.935Z,9.80
